createdAt,value
2024-02-28T00:00:32.485Z,89.96
2024-02-28T00:03:20.652Z,90.03
2024-02-28T00:05:49.285Z,90.47
2024-02-28T00:08:18.155Z,90.44
2024-02-28T00:10:46.299Z,90.37
2024-02-28T00:13:15.743Z,90.43
2024-02-28T00:15:43.639Z,90.37
2024-02-28T00:18:11.775Z,90.18
2024-02-28T00:20:39.680Z,90.48
2024-02-28T00:23:07.656Z,90.51
2024-02-28T00:25:36.197Z,90.34
2024-02-28T00:28:04.490Z,90.41
2024-02-28T00:30:33.983Z,90.41
2024-02-28T00:33:02.287Z,90.45
2024-02-28T00:35:34.403Z,90.45
2024-02-28T00:38:02.592Z,90.68
2024-02-28T00:40:30.681Z,90.75
2024-02-28T00:42:59.055Z,90.76
2024-02-28T00:45:27.034Z,91.23
2024-02-28T00:47:56.416Z,91.35
2024-02-28T00:50:24.442Z,91.25
2024-02-28T00:52:52.278Z,91.21
2024-02-28T00:55:20.388Z,91.51
2024-02-28T00:57:48.384Z,91.77
2024-02-28T01:00:16.732Z,91.89
2024-02-28T01:02:44.738Z,91.46
2024-02-28T01:05:12.676Z,91.88
2024-02-28T01:07:40.679Z,91.81
2024-02-28T01:10:08.795Z,91.62
2024-02-28T01:12:36.844Z,92.09
2024-02-28T01:15:05.217Z,92.06
2024-02-28T01:17:33.180Z,92.04
2024-02-28T01:20:01.041Z,92.43
2024-02-28T01:22:28.941Z,92.43
2024-02-28T01:24:56.936Z,92.67
2024-02-28T01:27:24.847Z,93.03
2024-02-28T01:29:54.777Z,93.03
2024-02-28T01:32:22.718Z,92.91
2024-02-28T01:34:50.576Z,93.15
2024-02-28T01:37:19.482Z,93.06
2024-02-28T01:39:47.398Z,92.99
2024-02-28T01:42:16.407Z,93.54
2024-02-28T01:44:48.954Z,93.76
2024-02-28T01:47:16.840Z,93.64
2024-02-28T01:49:45.065Z,93.57
2024-02-28T01:52:13.386Z,93.64
2024-02-28T01:54:41.319Z,93.81
2024-02-28T01:57:09.261Z,93.97
2024-02-28T01:59:37.210Z,93.85
2024-02-28T02:02:05.284Z,93.82
2024-02-28T02:04:33.540Z,93.72
2024-02-28T02:07:01.559Z,94.05
2024-02-28T02:09:29.609Z,94.29
2024-02-28T02:11:57.676Z,94.33
2024-02-28T02:14:25.700Z,94.09
2024-02-28T02:16:53.534Z,94.29
2024-02-28T02:19:22.232Z,94.38
2024-02-28T02:21:52.033Z,94.25
2024-02-28T02:24:20.186Z,94.28
2024-02-28T02:26:48.275Z,94.24
2024-02-28T02:29:16.209Z,94.51
2024-02-28T02:31:44.126Z,94.30
2024-02-28T02:34:12.083Z,94.48
2024-02-28T02:36:40.099Z,94.85
2024-02-28T02:39:10.718Z,94.93
2024-02-28T02:41:38.713Z,94.83
2024-02-28T02:44:06.816Z,94.83
2024-02-28T02:46:34.831Z,94.95
2024-02-28T02:49:03.512Z,94.95
2024-02-28T02:51:31.493Z,95.04
2024-02-28T02:53:59.696Z,94.86
2024-02-28T02:56:27.648Z,94.79
2024-02-28T02:58:55.692Z,95.07
2024-02-28T03:01:23.643Z,94.83
2024-02-28T03:03:51.906Z,95.08
2024-02-28T03:06:20.059Z,95.27
2024-02-28T03:08:48.106Z,95.26
2024-02-28T03:11:16.407Z,95.45
2024-02-28T03:13:44.357Z,95.55
2024-02-28T03:16:12.589Z,95.64
2024-02-28T03:18:40.684Z,95.89
2024-02-28T03:21:08.620Z,95.89
2024-02-28T03:23:37.372Z,95.83
2024-02-28T03:26:05.948Z,95.63
2024-02-28T03:28:33.962Z,95.69
2024-02-28T03:31:02.010Z,95.49
2024-02-28T03:33:32.902Z,95.41
2024-02-28T03:36:01.150Z,95.67
2024-02-28T03:38:29.136Z,95.88
2024-02-28T03:40:57.260Z,95.77
2024-02-28T03:43:25.254Z,95.98
2024-02-28T03:45:53.764Z,96.04
2024-02-28T03:48:22.022Z,95.84
2024-02-28T03:50:50.090Z,96.02
2024-02-28T03:53:18.593Z,95.96
2024-02-28T03:55:46.416Z,95.40
2024-02-28T03:58:14.509Z,95.44
2024-02-28T04:00:45.705Z,95.53
2024-02-28T04:03:15.337Z,95.75
2024-02-28T04:05:43.450Z,95.93
2024-02-28T04:08:11.546Z,96.02
2024-02-28T04:10:39.547Z,96.02
2024-02-28T04:13:07.554Z,96.21
2024-02-28T04:15:35.696Z,95.97
2024-02-28T04:18:04.787Z,95.78
2024-02-28T04:20:32.869Z,96.15
2024-02-28T04:23:00.853Z,95.85
2024-02-28T04:25:28.690Z,95.38
2024-02-28T04:27:58.277Z,95.15
2024-02-28T04:30:26.494Z,95.24
2024-02-28T04:32:55.066Z,95.09
2024-02-28T04:35:23.027Z,95.56
2024-02-28T04:37:51.433Z,95.81
2024-02-28T04:40:19.400Z,95.81
2024-02-28T04:42:47.444Z,95.61
2024-02-28T04:45:15.458Z,95.62
2024-02-28T04:47:44.774Z,95.70
2024-02-28T04:50:13.714Z,95.86
2024-02-28T04:52:41.894Z,95.80
2024-02-28T04:55:10.055Z,95.97
2024-02-28T04:57:38.626Z,95.85
2024-02-28T05:00:09.043Z,96.09
2024-02-28T05:02:37.191Z,96.19
2024-02-28T05:05:05.497Z,96.31
2024-02-28T05:07:33.441Z,96.46
2024-02-28T05:10:01.372Z,96.42
2024-02-28T05:12:29.468Z,96.10
2024-02-28T05:14:57.389Z,96.17
2024-02-28T05:17:25.548Z,96.53
2024-02-28T05:19:53.537Z,96.39
2024-02-28T05:22:21.408Z,96.63
2024-02-28T05:24:49.306Z,96.36
2024-02-28T05:27:17.306Z,96.03
2024-02-28T05:29:45.272Z,95.74
2024-02-28T05:32:13.476Z,95.91
2024-02-28T05:34:42.369Z,96.08
2024-02-28T05:37:10.385Z,96.29
2024-02-28T05:39:38.528Z,95.93
2024-02-28T05:42:06.560Z,96.03
2024-02-28T05:44:35.574Z,96.30
2024-02-28T05:47:03.741Z,96.28
2024-02-28T05:49:31.679Z,96.27
2024-02-28T05:51:59.708Z,96.49
2024-02-28T05:54:30.591Z,96.58
2024-02-28T05:56:58.946Z,96.43
2024-02-28T05:59:27.473Z,96.61
2024-02-28T06:01:55.732Z,96.74
2024-02-28T06:04:25.018Z,96.75
2024-02-28T06:06:53.075Z,96.60
2024-02-28T06:09:21.101Z,96.58
2024-02-28T06:11:49.107Z,96.92
2024-02-28T06:14:17.098Z,96.77
2024-02-28T06:16:48.021Z,96.63
2024-02-28T06:19:16.000Z,96.77
2024-02-28T06:21:44.047Z,96.74
2024-02-28T06:24:12.076Z,96.65
2024-02-28T06:26:40.066Z,96.36
2024-02-28T06:29:08.886Z,96.38
2024-02-28T06:31:37.066Z,96.60
2024-02-28T06:34:05.240Z,96.80
2024-02-28T06:36:33.388Z,96.83
2024-02-28T06:39:01.272Z,96.67
2024-02-28T06:41:29.167Z,96.91
2024-02-28T06:43:57.410Z,97.12
2024-02-28T06:46:26.133Z,97.06
2024-02-28T06:48:54.344Z,97.26
2024-02-28T06:51:22.413Z,97.19
2024-02-28T06:53:50.508Z,97.29
2024-02-28T06:56:18.540Z,97.48
2024-02-28T06:58:46.365Z,97.51
2024-02-28T07:01:14.455Z,97.68
2024-02-28T07:03:42.459Z,97.83
2024-02-28T07:06:10.511Z,97.91
2024-02-28T07:08:38.461Z,98.00
2024-02-28T07:11:06.406Z,98.18
2024-02-28T07:13:34.439Z,98.05
2024-02-28T07:16:02.598Z,98.12
2024-02-28T07:18:31.360Z,98.26
2024-02-28T07:20:59.621Z,98.53
2024-02-28T07:23:27.627Z,98.56
2024-02-28T07:25:59.861Z,98.58
2024-02-28T07:28:32.298Z,98.50
2024-02-28T07:31:00.228Z,98.13
2024-02-28T07:33:28.186Z,98.07
2024-02-28T07:35:58.179Z,98.10
2024-02-28T07:38:28.939Z,97.86
2024-02-28T07:40:56.982Z,98.22
2024-02-28T07:43:24.892Z,98.45
2024-02-28T07:45:52.861Z,98.47
2024-02-28T07:48:21.148Z,98.52
2024-02-28T07:50:49.164Z,98.51
2024-02-28T07:53:18.313Z,98.06
2024-02-28T07:55:46.423Z,98.33
2024-02-28T07:58:15.962Z,98.18
2024-02-28T08:00:45.154Z,98.11
2024-02-28T08:03:13.261Z,97.96
2024-02-28T08:05:41.851Z,98.17
2024-02-28T08:08:09.830Z,98.05
2024-02-28T08:10:40.731Z,98.09
2024-02-28T08:13:11.359Z,98.44
2024-02-28T08:15:39.411Z,98.23
2024-02-28T08:18:07.617Z,98.05
2024-02-28T08:20:35.684Z,97.96
2024-02-28T08:23:04.733Z,97.91
2024-02-28T08:25:33.032Z,98.34
2024-02-28T08:28:01.172Z,98.01
2024-02-28T08:30:29.281Z,98.17
2024-02-28T08:32:57.553Z,98.18
2024-02-28T08:35:25.507Z,98.36
2024-02-28T08:37:54.147Z,98.22
2024-02-28T08:40:22.100Z,98.48
2024-02-28T08:42:54.310Z,98.40
2024-02-28T08:45:23.918Z,98.41
2024-02-28T08:47:51.844Z,98.37
2024-02-28T08:50:19.805Z,98.05
2024-02-28T08:52:47.830Z,97.79
2024-02-28T08:55:19.776Z,98.01
2024-02-28T08:57:47.781Z,98.37
2024-02-28T09:00:16.630Z,98.53
2024-02-28T09:02:45.504Z,98.86
2024-02-28T09:05:13.698Z,99.01
2024-02-28T09:07:41.614Z,98.89
2024-02-28T09:10:10.133Z,98.90
2024-02-28T09:12:38.055Z,99.04
2024-02-28T09:15:06.642Z,98.95
2024-02-28T09:17:34.745Z,99.00
2024-02-28T09:20:02.804Z,98.99
2024-02-28T09:22:30.809Z,98.75
2024-02-28T09:24:58.902Z,98.65
2024-02-28T09:27:27.292Z,98.46
2024-02-28T09:29:55.430Z,98.53
2024-02-28T09:32:24.384Z,98.55
2024-02-28T09:34:52.276Z,98.81
2024-02-28T09:37:22.278Z,98.84
2024-02-28T09:39:50.309Z,98.67
2024-02-28T09:42:18.495Z,98.39
2024-02-28T09:44:46.622Z,98.54
2024-02-28T09:47:14.595Z,98.48
2024-02-28T09:49:45.961Z,98.66
2024-02-28T09:52:13.974Z,98.79
2024-02-28T09:54:43.353Z,98.91
2024-02-28T09:57:12.295Z,98.78
2024-02-28T09:59:48.390Z,98.60
2024-02-28T10:02:22.748Z,98.31
2024-02-28T10:04:50.654Z,98.20
2024-02-28T10:07:19.033Z,98.20
2024-02-28T10:09:47.763Z,98.21
2024-02-28T10:12:15.853Z,98.37
2024-02-28T10:14:43.910Z,98.29
2024-02-28T10:17:11.946Z,98.07
2024-02-28T10:19:40.085Z,98.10
2024-02-28T10:22:08.161Z,98.03
2024-02-28T10:24:36.342Z,98.07
2024-02-28T10:27:04.741Z,98.15
2024-02-28T10:29:34.107Z,98.46
2024-02-28T10:32:04.067Z,98.36
2024-02-28T10:34:32.124Z,98.75
2024-02-28T10:37:00.079Z,98.79
2024-02-28T10:39:28.249Z,98.71
2024-02-28T10:41:56.165Z,98.80
2024-02-28T10:44:24.216Z,98.91
2024-02-28T10:46:52.640Z,98.82
2024-02-28T10:49:20.757Z,98.67
2024-02-28T10:51:50.081Z,98.77
2024-02-28T10:54:18.122Z,99.02
2024-02-28T10:56:46.188Z,99.02
2024-02-28T10:59:14.540Z,98.78
2024-02-28T11:01:43.855Z,98.84
2024-02-28T11:04:13.084Z,99.05
2024-02-28T11:06:54.973Z,99.03
2024-02-28T11:09:24.273Z,98.91
2024-02-28T11:11:52.916Z,98.82
2024-02-28T11:14:23.671Z,98.69
2024-02-28T11:17:02.646Z,98.78
2024-02-28T11:19:32.254Z,98.65
2024-02-28T11:22:01.214Z,98.56
2024-02-28T11:24:32.702Z,98.47
2024-02-28T11:27:00.833Z,98.54
2024-02-28T11:29:30.077Z,98.43
2024-02-28T11:31:58.765Z,98.36
2024-02-28T11:34:27.253Z,98.48
2024-02-28T11:36:57.571Z,98.67
2024-02-28T11:39:26.524Z,98.97
2024-02-28T11:41:54.948Z,98.63
2024-02-28T11:44:23.039Z,98.51
2024-02-28T11:46:51.088Z,98.36
2024-02-28T11:49:19.075Z,98.22
2024-02-28T11:51:47.353Z,98.28
2024-02-28T11:54:15.790Z,98.01
2024-02-28T11:56:43.777Z,97.83
2024-02-28T11:59:14.708Z,97.60
2024-02-28T12:01:45.581Z,97.53
2024-02-28T12:04:14.138Z,97.80
2024-02-28T12:06:42.308Z,97.84
2024-02-28T12:09:16.299Z,97.82
2024-02-28T12:11:46.970Z,97.90
2024-02-28T12:14:15.055Z,97.37
2024-02-28T12:16:43.445Z,97.62
2024-02-28T12:19:12.150Z,97.59
2024-02-28T12:21:40.827Z,97.78
2024-02-28T12:24:10.198Z,97.99
2024-02-28T12:26:39.059Z,98.21
2024-02-28T12:29:07.369Z,98.21
2024-02-28T12:31:35.316Z,98.51
2024-02-28T12:34:05.435Z,98.43
2024-02-28T12:36:33.961Z,98.25
2024-02-28T12:39:02.193Z,98.25
2024-02-28T12:41:30.437Z,98.23
2024-02-28T12:43:58.434Z,97.93
2024-02-28T12:46:26.306Z,98.02
2024-02-28T12:48:54.350Z,98.08
2024-02-28T12:51:47.253Z,98.17
2024-02-28T12:54:15.884Z,98.20
2024-02-28T12:56:46.874Z,98.34
2024-02-28T12:59:15.037Z,98.38
2024-02-28T13:01:44.168Z,98.19
2024-02-28T13:04:12.535Z,98.02
2024-02-28T13:06:43.501Z,98.00
2024-02-28T13:09:14.170Z,98.03
2024-02-28T13:11:42.514Z,98.02
2024-02-28T13:14:12.006Z,97.98
2024-02-28T13:16:40.122Z,98.12
2024-02-28T13:19:08.106Z,98.20
2024-02-28T13:21:36.267Z,98.13
2024-02-28T13:24:05.579Z,98.39
2024-02-28T13:26:33.587Z,98.30
2024-02-28T13:29:01.603Z,98.41
2024-02-28T13:31:29.501Z,98.42
2024-02-28T13:33:57.515Z,98.45
2024-02-28T13:36:26.146Z,98.34
2024-02-28T13:38:54.309Z,98.51
2024-02-28T13:41:22.253Z,98.49
2024-02-28T13:43:50.107Z,98.65
2024-02-28T13:46:20.623Z,98.71
2024-02-28T13:48:49.108Z,98.60
2024-02-28T13:51:17.809Z,98.92
2024-02-28T13:53:45.703Z,98.98
2024-02-28T13:56:13.575Z,99.02
2024-02-28T13:58:46.163Z,99.18
2024-02-28T14:01:21.213Z,98.99
2024-02-28T14:03:49.491Z,99.12
2024-02-28T14:06:17.477Z,99.33
2024-02-28T14:08:45.503Z,99.25
2024-02-28T14:11:14.038Z,99.47
2024-02-28T14:13:42.547Z,99.35
2024-02-28T14:16:10.780Z,99.46
2024-02-28T14:18:39.356Z,99.55
2024-02-28T14:21:08.405Z,99.52
2024-02-28T14:23:37.238Z,99.73
2024-02-28T14:26:05.258Z,99.64
2024-02-28T14:28:33.180Z,99.75
2024-02-28T14:31:01.858Z,99.78
2024-02-28T14:33:30.276Z,99.61
2024-02-28T14:35:59.285Z,99.76
2024-02-28T14:38:27.275Z,99.81
2024-02-28T14:40:55.260Z,99.87
2024-02-28T14:43:23.207Z,99.76
2024-02-28T14:45:51.277Z,99.95
2024-02-28T14:48:19.377Z,99.98
2024-02-28T14:50:47.356Z,99.94
2024-02-28T14:53:17.682Z,99.91
2024-02-28T14:55:48.394Z,99.81
2024-02-28T14:58:16.634Z,99.85
2024-02-28T15:00:48.111Z,99.72
2024-02-28T15:03:16.834Z,99.96
2024-02-28T15:05:46.477Z,99.95
2024-02-28T15:08:14.618Z,99.99
2024-02-28T15:10:42.603Z,99.98
2024-02-28T15:13:10.921Z,99.98
2024-02-28T15:15:42.459Z,100.00
2024-02-28T15:18:11.596Z,100.00
2024-02-28T15:20:40.104Z,99.98
2024-02-28T15:23:08.113Z,100.00
2024-02-28T15:25:35.973Z,100.00
2024-02-28T15:28:04.261Z,99.96
2024-02-28T15:30:32.460Z,100.00
2024-02-28T15:33:00.596Z,100.00
2024-02-28T15:35:28.618Z,100.00
2024-02-28T15:37:56.527Z,99.97
2024-02-28T15:40:24.618Z,100.00
2024-02-28T15:42:52.807Z,100.00
2024-02-28T15:45:20.690Z,100.00
2024-02-28T15:47:49.059Z,100.00
2024-02-28T15:50:17.234Z,100.00
2024-02-28T15:52:45.986Z,100.00
2024-02-28T15:55:14.672Z,100.00
2024-02-28T15:57:42.670Z,100.00
2024-02-28T16:00:11.400Z,100.00
2024-02-28T16:02:42.227Z,100.00
2024-02-28T16:05:10.288Z,100.00
2024-02-28T16:07:38.366Z,100.00
2024-02-28T16:10:06.664Z,100.00
2024-02-28T16:12:34.726Z,100.00
2024-02-28T16:15:04.161Z,100.00
2024-02-28T16:17:33.384Z,100.00
2024-02-28T16:20:03.755Z,100.00
2024-02-28T16:22:31.962Z,100.00
2024-02-28T16:24:59.863Z,100.00
2024-02-28T16:27:28.469Z,100.00
2024-02-28T16:29:56.478Z,100.00
2024-02-28T16:32:24.362Z,100.00
2024-02-28T16:34:52.285Z,100.00
2024-02-28T16:37:20.347Z,100.00
2024-02-28T16:39:48.433Z,100.00
2024-02-28T16:42:16.531Z,100.00
2024-02-28T16:44:44.533Z,100.00
2024-02-28T16:47:13.721Z,100.00
2024-02-28T16:49:41.588Z,100.00
2024-02-28T16:52:11.710Z,100.00
2024-02-28T16:54:39.730Z,100.00
2024-02-28T16:57:08.350Z,100.00
2024-02-28T16:59:36.818Z,100.00
2024-02-28T17:02:05.788Z,100.00
2024-02-28T17:04:35.731Z,100.00
2024-02-28T17:07:04.854Z,100.00
2024-02-28T17:09:33.067Z,100.00
2024-02-28T17:12:01.104Z,100.00
2024-02-28T17:14:29.105Z,100.00
2024-02-28T17:16:57.267Z,100.00
2024-02-28T17:19:26.128Z,100.00
2024-02-28T17:21:54.118Z,100.00
2024-02-28T17:24:22.172Z,100.00
2024-02-28T17:26:50.170Z,100.00
2024-02-28T17:29:18.117Z,100.00
2024-02-28T17:31:46.129Z,100.00
2024-02-28T17:34:15.408Z,100.00
2024-02-28T17:36:43.770Z,100.00
2024-02-28T17:39:11.928Z,100.00
2024-02-28T17:41:39.968Z,100.00
2024-02-28T17:44:08.298Z,100.00
2024-02-28T17:46:36.237Z,100.00
2024-02-28T17:49:07.674Z,100.00
2024-02-28T17:51:37.686Z,100.00
2024-02-28T17:54:06.807Z,100.00
2024-02-28T17:56:34.900Z,100.00
2024-02-28T17:59:02.856Z,100.00
2024-02-28T18:01:31.064Z,100.00
2024-02-28T18:03:59.820Z,100.00
2024-02-28T18:06:27.888Z,100.00
2024-02-28T18:08:56.398Z,100.00
2024-02-28T18:11:27.446Z,100.00
2024-02-28T18:13:55.429Z,100.00
2024-02-28T18:16:23.712Z,100.00
2024-02-28T18:18:51.820Z,100.00
2024-02-28T18:21:20.128Z,100.00
2024-02-28T18:23:48.488Z,100.00
2024-02-28T18:26:19.476Z,100.00
2024-02-28T18:28:47.993Z,100.00
2024-02-28T18:31:15.941Z,100.00
2024-02-28T18:33:44.500Z,100.00
2024-02-28T18:36:12.859Z,100.00
2024-02-28T18:38:41.334Z,100.00
2024-02-28T18:41:09.619Z,100.00
2024-02-28T18:43:38.696Z,100.00
2024-02-28T18:46:06.862Z,100.00
2024-02-28T18:48:35.621Z,100.00
2024-02-28T18:51:04.132Z,100.00
2024-02-28T18:53:32.190Z,100.00
2024-02-28T18:56:02.084Z,100.00
2024-02-28T18:58:30.162Z,100.00
2024-02-28T19:00:58.379Z,100.00
2024-02-28T19:03:26.839Z,100.00
2024-02-28T19:05:54.826Z,100.00
2024-02-28T19:08:22.739Z,100.00
2024-02-28T19:10:50.889Z,100.00
2024-02-28T19:13:19.135Z,100.00
2024-02-28T19:15:47.089Z,100.00
2024-02-28T19:18:15.178Z,100.00
2024-02-28T19:20:43.068Z,100.00
2024-02-28T19:23:12.833Z,100.00
2024-02-28T19:25:42.810Z,100.00
2024-02-28T19:28:12.043Z,100.00
2024-02-28T19:30:40.380Z,100.00
2024-02-28T19:33:08.824Z,100.00
2024-02-28T19:35:38.481Z,100.00
2024-02-28T19:38:06.985Z,100.00
2024-02-28T19:40:34.906Z,100.00
2024-02-28T19:43:03.249Z,100.00
2024-02-28T19:45:31.332Z,100.00
2024-02-28T19:47:59.275Z,100.00
2024-02-28T19:50:27.261Z,100.00
2024-02-28T19:52:55.220Z,100.00
2024-02-28T19:55:23.455Z,100.00
2024-02-28T19:57:51.334Z,100.00
2024-02-28T20:00:19.891Z,100.00
2024-02-28T20:02:49.209Z,100.00
2024-02-28T20:05:20.299Z,100.00
2024-02-28T20:07:50.111Z,100.00
2024-02-28T20:10:18.717Z,100.00
2024-02-28T20:12:46.989Z,100.00
2024-02-28T20:15:15.213Z,100.00
2024-02-28T20:17:43.128Z,100.00
2024-02-28T20:20:11.957Z,100.00
2024-02-28T20:22:40.810Z,100.00
2024-02-28T20:25:09.242Z,100.00
2024-02-28T20:27:37.652Z,100.00
2024-02-28T20:30:07.252Z,100.00
2024-02-28T20:32:36.339Z,100.00
2024-02-28T20:35:04.976Z,100.00
2024-02-28T20:37:33.043Z,100.00
2024-02-28T20:40:01.285Z,100.00
2024-02-28T20:42:29.614Z,100.00
2024-02-28T20:44:57.867Z,100.00
2024-02-28T20:47:26.151Z,100.00
2024-02-28T20:49:54.487Z,100.00
2024-02-28T20:52:24.881Z,100.00
2024-02-28T20:54:55.958Z,100.00
2024-02-28T20:57:25.334Z,100.00
2024-02-28T20:59:53.555Z,100.00
2024-02-28T21:02:22.876Z,100.00
2024-02-28T21:04:50.816Z,100.00
2024-02-28T21:07:18.850Z,100.00
2024-02-28T21:09:48.964Z,100.00
2024-02-28T21:12:18.828Z,100.00
2024-02-28T21:14:47.084Z,100.00
2024-02-28T21:17:15.034Z,100.00
2024-02-28T21:19:43.236Z,100.00
2024-02-28T21:22:11.173Z,100.00
2024-02-28T21:24:39.784Z,100.00
2024-02-28T21:27:07.779Z,100.00
2024-02-28T21:29:35.720Z,100.00
2024-02-28T21:32:03.801Z,100.00
2024-02-28T21:34:31.750Z,100.00
2024-02-28T21:36:59.810Z,100.00
2024-02-28T21:39:28.263Z,100.00
2024-02-28T21:41:56.270Z,100.00
2024-02-28T21:44:26.553Z,100.00
2024-02-28T21:46:55.329Z,100.00
2024-02-28T21:49:23.390Z,100.00
2024-02-28T21:51:51.352Z,100.00
2024-02-28T21:54:19.283Z,100.00
2024-02-28T21:56:47.269Z,100.00
2024-02-28T21:59:15.187Z,100.00
2024-02-28T22:01:43.220Z,100.00
2024-02-28T22:04:11.961Z,100.00
2024-02-28T22:06:40.177Z,100.00
2024-02-28T22:09:08.245Z,100.00
2024-02-28T22:11:36.314Z,100.00
2024-02-28T22:14:04.235Z,100.00
2024-02-28T22:16:32.279Z,100.00
2024-02-28T22:19:00.812Z,100.00
2024-02-28T22:21:28.878Z,100.00
2024-02-28T22:23:56.983Z,100.00
2024-02-28T22:26:24.914Z,100.00
2024-02-28T22:28:53.001Z,100.00
2024-02-28T22:31:21.061Z,100.00
2024-02-28T22:33:49.001Z,100.00
2024-02-28T22:36:17.404Z,100.00
2024-02-28T22:38:45.716Z,100.00
2024-02-28T22:41:13.621Z,100.00
2024-02-28T22:43:41.757Z,100.00
2024-02-28T22:46:10.028Z,100.00
2024-02-28T22:48:38.165Z,100.00
2024-02-28T22:51:06.235Z,100.00
2024-02-28T22:53:34.118Z,100.00
2024-02-28T22:56:02.368Z,100.00
2024-02-28T22:58:30.194Z,100.00
2024-02-28T23:00:58.294Z,100.00
2024-02-28T23:03:26.493Z,100.00
2024-02-28T23:05:55.045Z,100.00
2024-02-28T23:08:23.159Z,100.00
2024-02-28T23:10:51.306Z,100.00
2024-02-28T23:13:19.421Z,100.00
2024-02-28T23:15:47.605Z,100.00
2024-02-28T23:18:16.283Z,100.00
2024-02-28T23:20:45.935Z,100.00
2024-02-28T23:23:13.819Z,100.00
2024-02-28T23:25:42.210Z,100.00
2024-02-28T23:28:10.402Z,100.00
2024-02-28T23:30:38.508Z,100.00
2024-02-28T23:33:08.136Z,100.00
2024-02-28T23:35:36.348Z,100.00
2024-02-28T23:38:06.794Z,100.00
2024-02-28T23:40:34.986Z,100.00
2024-02-28T23:43:03.294Z,100.00
2024-02-28T23:45:31.476Z,100.00
2024-02-28T23:47:59.554Z,100.00
2024-02-28T23:50:28.603Z,100.00
2024-02-28T23:52:56.555Z,100.00
2024-02-28T23:55:24.470Z,100.00
2024-02-28T23:57:52.626Z,100.00
